sensor_id;sensor_type;location;lat;lon;timestamp;P1;durP1;ratioP1;P2;durP2;ratioP2
12519;SDS011;6325;49.540;8.364;2024-02-28T00:00:24;10.27;;;9.20;;
12519;SDS011;6325;49.540;8.364;2024-02-28T00:02:51;9.40;;;8.50;;
12519;SDS011;6325;49.540;8.364;2024-02-28T00:05:18;9.68;;;8.75;;
12519;SDS011;6325;49.540;8.364;2024-02-28T00:07:44;10.52;;;9.43;;
12519;SDS011;6325;49.540;8.364;2024-02-28T00:10:12;10.07;;;9.07;;
12519;SDS011;6325;49.540;8.364;2024-02-28T00:12:40;10.43;;;9.32;;
12519;SDS011;6325;49.540;8.364;2024-02-28T00:15:07;10.05;;;9.05;;
12519;SDS011;6325;49.540;8.364;2024-02-28T00:17:37;10.55;;;9.18;;
12519;SDS011;6325;49.540;8.364;2024-02-28T00:20:05;10.27;;;9.27;;
12519;SDS011;6325;49.540;8.364;2024-02-28T00:22:33;10.70;;;9.60;;
12519;SDS011;6325;49.540;8.364;2024-02-28T00:25:01;12.18;;;10.88;;
12519;SDS011;6325;49.540;8.364;2024-02-28T00:27:27;11.18;;;9.90;;
12519;SDS011;6325;49.540;8.364;2024-02-28T00:29:56;11.00;;;9.80;;
12519;SDS011;6325;49.540;8.364;2024-02-28T00:32:22;10.63;;;9.52;;
12519;SDS011;6325;49.540;8.364;2024-02-28T00:34:49;11.13;;;9.93;;
12519;SDS011;6325;49.540;8.364;2024-02-28T00:37:16;13.00;;;11.35;;
12519;SDS011;6325;49.540;8.364;2024-02-28T00:39:43;12.57;;;11.25;;
12519;SDS011;6325;49.540;8.364;2024-02-28T00:42:11;12.55;;;11.25;;
12519;SDS011;6325;49.540;8.364;2024-02-28T00:44:37;12.55;;;11.15;;
12519;SDS011;6325;49.540;8.364;2024-02-28T00:47:08;12.50;;;11.20;;
12519;SDS011;6325;49.540;8.364;2024-02-28T00:49:35;13.10;;;11.73;;
12519;SDS011;6325;49.540;8.364;2024-02-28T00:52:02;13.35;;;11.70;;
12519;SDS011;6325;49.540;8.364;2024-02-28T00:54:32;14.48;;;12.98;;
12519;SDS011;6325;49.540;8.364;2024-02-28T00:56:58;13.35;;;11.93;;
12519;SDS011;6325;49.540;8.364;2024-02-28T00:59:25;14.23;;;12.70;;
12519;SDS011;6325;49.540;8.364;2024-02-28T01:01:52;15.48;;;13.52;;
12519;SDS011;6325;49.540;8.364;2024-02-28T01:04:20;13.70;;;12.23;;
12519;SDS011;6325;49.540;8.364;2024-02-28T01:06:47;14.82;;;12.50;;
12519;SDS011;6325;49.540;8.364;2024-02-28T01:09:14;15.27;;;12.47;;
12519;SDS011;6325;49.540;8.364;2024-02-28T01:11:41;14.55;;;12.48;;
12519;SDS011;6325;49.540;8.364;2024-02-28T01:14:07;14.90;;;13.05;;
12519;SDS011;6325;49.540;8.364;2024-02-28T01:16:34;14.82;;;13.05;;
12519;SDS011;6325;49.540;8.364;2024-02-28T01:19:01;15.85;;;13.35;;
12519;SDS011;6325;49.540;8.364;2024-02-28T01:21:29;16.65;;;13.73;;
12519;SDS011;6325;49.540;8.364;2024-02-28T01:23:56;16.63;;;13.80;;
12519;SDS011;6325;49.540;8.364;2024-02-28T01:26:22;15.38;;;13.13;;
12519;SDS011;6325;49.540;8.364;2024-02-28T01:28:49;17.25;;;13.77;;
12519;SDS011;6325;49.540;8.364;2024-02-28T01:31:16;16.90;;;14.13;;
12519;SDS011;6325;49.540;8.364;2024-02-28T01:33:43;16.35;;;13.98;;
12519;SDS011;6325;49.540;8.364;2024-02-28T01:36:10;18.27;;;15.23;;
12519;SDS011;6325;49.540;8.364;2024-02-28T01:38:39;16.65;;;13.85;;
12519;SDS011;6325;49.540;8.364;2024-02-28T01:41:06;17.77;;;14.63;;
12519;SDS011;6325;49.540;8.364;2024-02-28T01:43:33;17.45;;;14.25;;
12519;SDS011;6325;49.540;8.364;2024-02-28T01:46:00;17.77;;;14.77;;
12519;SDS011;6325;49.540;8.364;2024-02-28T01:48:29;17.05;;;14.52;;
12519;SDS011;6325;49.540;8.364;2024-02-28T01:50:56;18.03;;;15.17;;
12519;SDS011;6325;49.540;8.364;2024-02-28T01:53:23;20.10;;;15.50;;
12519;SDS011;6325;49.540;8.364;2024-02-28T01:55:51;20.00;;;16.40;;
12519;SDS011;6325;49.540;8.364;2024-02-28T01:58:18;18.27;;;15.25;;
12519;SDS011;6325;49.540;8.364;2024-02-28T02:00:46;18.08;;;15.35;;
12519;SDS011;6325;49.540;8.364;2024-02-28T02:03:13;17.58;;;14.45;;
12519;SDS011;6325;49.540;8.364;2024-02-28T02:05:41;18.65;;;16.00;;
12519;SDS011;6325;49.540;8.364;2024-02-28T02:08:08;19.53;;;16.67;;
12519;SDS011;6325;49.540;8.364;2024-02-28T02:10:35;22.05;;;17.50;;
12519;SDS011;6325;49.540;8.364;2024-02-28T02:13:06;20.38;;;16.50;;
12519;SDS011;6325;49.540;8.364;2024-02-28T02:15:33;19.77;;;15.88;;
12519;SDS011;6325;49.540;8.364;2024-02-28T02:18:00;20.27;;;16.45;;
12519;SDS011;6325;49.540;8.364;2024-02-28T02:20:27;19.92;;;16.52;;
12519;SDS011;6325;49.540;8.364;2024-02-28T02:22:59;21.75;;;17.40;;
12519;SDS011;6325;49.540;8.364;2024-02-28T02:25:26;20.92;;;16.83;;
12519;SDS011;6325;49.540;8.364;2024-02-28T02:27:53;20.92;;;17.17;;
12519;SDS011;6325;49.540;8.364;2024-02-28T02:30:20;21.75;;;17.17;;
12519;SDS011;6325;49.540;8.364;2024-02-28T02:32:46;20.27;;;16.42;;
12519;SDS011;6325;49.540;8.364;2024-02-28T02:35:13;19.52;;;15.90;;
12519;SDS011;6325;49.540;8.364;2024-02-28T02:37:43;18.42;;;15.65;;
12519;SDS011;6325;49.540;8.364;2024-02-28T02:40:12;20.02;;;16.13;;
12519;SDS011;6325;49.540;8.364;2024-02-28T02:42:39;18.23;;;15.13;;
12519;SDS011;6325;49.540;8.364;2024-02-28T02:45:05;19.07;;;15.53;;
12519;SDS011;6325;49.540;8.364;2024-02-28T02:47:32;19.55;;;16.33;;
12519;SDS011;6325;49.540;8.364;2024-02-28T02:50:00;19.70;;;16.27;;
12519;SDS011;6325;49.540;8.364;2024-02-28T02:52:27;19.88;;;16.52;;
12519;SDS011;6325;49.540;8.364;2024-02-28T02:54:53;20.88;;;16.05;;
12519;SDS011;6325;49.540;8.364;2024-02-28T02:57:21;19.77;;;15.93;;
12519;SDS011;6325;49.540;8.364;2024-02-28T02:59:48;17.90;;;14.93;;
12519;SDS011;6325;49.540;8.364;2024-02-28T03:02:15;19.88;;;15.82;;
12519;SDS011;6325;49.540;8.364;2024-02-28T03:04:41;19.55;;;15.75;;
12519;SDS011;6325;49.540;8.364;2024-02-28T03:07:08;19.97;;;15.70;;
12519;SDS011;6325;49.540;8.364;2024-02-28T03:09:35;18.08;;;15.13;;
12519;SDS011;6325;49.540;8.364;2024-02-28T03:12:02;19.83;;;15.95;;
12519;SDS011;6325;49.540;8.364;2024-02-28T03:14:30;18.83;;;15.57;;
12519;SDS011;6325;49.540;8.364;2024-02-28T03:16:57;18.80;;;15.70;;
12519;SDS011;6325;49.540;8.364;2024-02-28T03:19:24;19.67;;;15.95;;
12519;SDS011;6325;49.540;8.364;2024-02-28T03:21:50;18.90;;;15.52;;
12519;SDS011;6325;49.540;8.364;2024-02-28T03:24:17;18.75;;;15.27;;
12519;SDS011;6325;49.540;8.364;2024-02-28T03:26:44;21.00;;;16.47;;
12519;SDS011;6325;49.540;8.364;2024-02-28T03:29:10;21.15;;;17.05;;
12519;SDS011;6325;49.540;8.364;2024-02-28T03:31:39;20.42;;;16.60;;
12519;SDS011;6325;49.540;8.364;2024-02-28T03:34:05;20.30;;;16.80;;
12519;SDS011;6325;49.540;8.364;2024-02-28T03:36:32;19.98;;;16.38;;
12519;SDS011;6325;49.540;8.364;2024-02-28T03:38:59;20.38;;;16.33;;
12519;SDS011;6325;49.540;8.364;2024-02-28T03:41:26;21.20;;;16.63;;
12519;SDS011;6325;49.540;8.364;2024-02-28T03:43:53;20.98;;;16.98;;
12519;SDS011;6325;49.540;8.364;2024-02-28T03:46:19;22.03;;;17.50;;
12519;SDS011;6325;49.540;8.364;2024-02-28T03:48:48;24.33;;;18.27;;
12519;SDS011;6325;49.540;8.364;2024-02-28T03:51:15;21.27;;;16.65;;
12519;SDS011;6325;49.540;8.364;2024-02-28T03:53:42;19.70;;;16.07;;
12519;SDS011;6325;49.540;8.364;2024-02-28T03:56:08;20.38;;;16.30;;
12519;SDS011;6325;49.540;8.364;2024-02-28T03:58:36;19.95;;;15.80;;
12519;SDS011;6325;49.540;8.364;2024-02-28T04:01:03;22.17;;;17.40;;
12519;SDS011;6325;49.540;8.364;2024-02-28T04:03:30;23.55;;;17.50;;
12519;SDS011;6325;49.540;8.364;2024-02-28T04:05:58;21.95;;;17.23;;
12519;SDS011;6325;49.540;8.364;2024-02-28T04:08:25;21.65;;;16.73;;
12519;SDS011;6325;49.540;8.364;2024-02-28T04:10:52;18.92;;;15.50;;
12519;SDS011;6325;49.540;8.364;2024-02-28T04:13:18;20.42;;;16.25;;
12519;SDS011;6325;49.540;8.364;2024-02-28T04:15:45;19.75;;;16.02;;
12519;SDS011;6325;49.540;8.364;2024-02-28T04:18:12;20.88;;;16.35;;
12519;SDS011;6325;49.540;8.364;2024-02-28T04:20:38;19.85;;;16.27;;
12519;SDS011;6325;49.540;8.364;2024-02-28T04:23:07;20.88;;;16.10;;
12519;SDS011;6325;49.540;8.364;2024-02-28T04:25:33;19.67;;;15.90;;
12519;SDS011;6325;49.540;8.364;2024-02-28T04:28:00;20.27;;;16.45;;
12519;SDS011;6325;49.540;8.364;2024-02-28T04:30:27;20.27;;;15.48;;
12519;SDS011;6325;49.540;8.364;2024-02-28T04:32:54;19.33;;;15.25;;
12519;SDS011;6325;49.540;8.364;2024-02-28T04:35:21;20.83;;;16.60;;
12519;SDS011;6325;49.540;8.364;2024-02-28T04:37:48;21.88;;;17.02;;
12519;SDS011;6325;49.540;8.364;2024-02-28T04:40:16;20.50;;;15.95;;
12519;SDS011;6325;49.540;8.364;2024-02-28T04:42:43;20.30;;;15.57;;
12519;SDS011;6325;49.540;8.364;2024-02-28T04:45:09;19.33;;;15.52;;
12519;SDS011;6325;49.540;8.364;2024-02-28T04:47:36;19.48;;;15.23;;
12519;SDS011;6325;49.540;8.364;2024-02-28T04:50:04;20.73;;;16.00;;
12519;SDS011;6325;49.540;8.364;2024-02-28T04:52:31;18.67;;;15.20;;
12519;SDS011;6325;49.540;8.364;2024-02-28T04:54:58;19.77;;;15.73;;
12519;SDS011;6325;49.540;8.364;2024-02-28T04:57:26;18.88;;;15.25;;
12519;SDS011;6325;49.540;8.364;2024-02-28T04:59:53;19.67;;;15.52;;
12519;SDS011;6325;49.540;8.364;2024-02-28T05:02:20;19.55;;;15.52;;
12519;SDS011;6325;49.540;8.364;2024-02-28T05:04:47;19.20;;;15.02;;
12519;SDS011;6325;49.540;8.364;2024-02-28T05:07:14;19.90;;;15.88;;
12519;SDS011;6325;49.540;8.364;2024-02-28T05:09:40;21.17;;;15.93;;
12519;SDS011;6325;49.540;8.364;2024-02-28T05:12:07;22.33;;;17.48;;
12519;SDS011;6325;49.540;8.364;2024-02-28T05:14:35;22.60;;;16.80;;
12519;SDS011;6325;49.540;8.364;2024-02-28T05:17:02;20.77;;;16.20;;
12519;SDS011;6325;49.540;8.364;2024-02-28T05:19:29;21.07;;;16.10;;
12519;SDS011;6325;49.540;8.364;2024-02-28T05:21:56;24.90;;;18.38;;
12519;SDS011;6325;49.540;8.364;2024-02-28T05:24:23;22.75;;;17.75;;
12519;SDS011;6325;49.540;8.364;2024-02-28T05:26:49;22.55;;;17.25;;
12519;SDS011;6325;49.540;8.364;2024-02-28T05:29:16;22.02;;;17.05;;
12519;SDS011;6325;49.540;8.364;2024-02-28T05:31:44;20.30;;;15.85;;
12519;SDS011;6325;49.540;8.364;2024-02-28T05:34:11;20.97;;;16.07;;
12519;SDS011;6325;49.540;8.364;2024-02-28T05:36:37;21.98;;;16.50;;
12519;SDS011;6325;49.540;8.364;2024-02-28T05:39:06;20.67;;;15.57;;
12519;SDS011;6325;49.540;8.364;2024-02-28T05:41:33;21.20;;;16.38;;
12519;SDS011;6325;49.540;8.364;2024-02-28T05:44:00;20.10;;;16.10;;
12519;SDS011;6325;49.540;8.364;2024-02-28T05:46:27;21.92;;;16.95;;
12519;SDS011;6325;49.540;8.364;2024-02-28T05:48:55;20.30;;;16.10;;
12519;SDS011;6325;49.540;8.364;2024-02-28T05:51:21;22.30;;;17.05;;
12519;SDS011;6325;49.540;8.364;2024-02-28T05:53:48;21.83;;;16.85;;
12519;SDS011;6325;49.540;8.364;2024-02-28T05:56:16;19.70;;;15.02;;
12519;SDS011;6325;49.540;8.364;2024-02-28T05:58:44;20.45;;;15.55;;
12519;SDS011;6325;49.540;8.364;2024-02-28T06:01:12;22.30;;;16.50;;
12519;SDS011;6325;49.540;8.364;2024-02-28T06:03:41;20.90;;;16.58;;
12519;SDS011;6325;49.540;8.364;2024-02-28T06:06:09;20.88;;;16.02;;
12519;SDS011;6325;49.540;8.364;2024-02-28T06:08:37;23.35;;;17.38;;
12519;SDS011;6325;49.540;8.364;2024-02-28T06:11:04;23.65;;;18.38;;
12519;SDS011;6325;49.540;8.364;2024-02-28T06:13:31;24.60;;;18.67;;
12519;SDS011;6325;49.540;8.364;2024-02-28T06:15:59;23.58;;;17.33;;
12519;SDS011;6325;49.540;8.364;2024-02-28T06:18:26;24.88;;;18.02;;
12519;SDS011;6325;49.540;8.364;2024-02-28T06:20:53;24.88;;;18.48;;
12519;SDS011;6325;49.540;8.364;2024-02-28T06:23:21;25.80;;;18.83;;
12519;SDS011;6325;49.540;8.364;2024-02-28T06:25:48;23.25;;;18.23;;
12519;SDS011;6325;49.540;8.364;2024-02-28T06:28:15;25.27;;;18.80;;
12519;SDS011;6325;49.540;8.364;2024-02-28T06:30:42;27.47;;;19.97;;
12519;SDS011;6325;49.540;8.364;2024-02-28T06:33:10;26.75;;;19.77;;
12519;SDS011;6325;49.540;8.364;2024-02-28T06:35:36;26.02;;;19.02;;
12519;SDS011;6325;49.540;8.364;2024-02-28T06:38:03;25.88;;;18.77;;
12519;SDS011;6325;49.540;8.364;2024-02-28T06:40:31;26.48;;;19.02;;
12519;SDS011;6325;49.540;8.364;2024-02-28T06:42:58;27.63;;;20.65;;
12519;SDS011;6325;49.540;8.364;2024-02-28T06:45:25;25.33;;;19.10;;
12519;SDS011;6325;49.540;8.364;2024-02-28T06:47:51;27.50;;;19.87;;
12519;SDS011;6325;49.540;8.364;2024-02-28T06:50:18;26.25;;;19.98;;
12519;SDS011;6325;49.540;8.364;2024-02-28T06:52:45;27.42;;;19.17;;
12519;SDS011;6325;49.540;8.364;2024-02-28T06:55:11;26.67;;;20.00;;
12519;SDS011;6325;49.540;8.364;2024-02-28T06:57:41;26.08;;;18.67;;
12519;SDS011;6325;49.540;8.364;2024-02-28T07:00:08;26.17;;;19.20;;
12519;SDS011;6325;49.540;8.364;2024-02-28T07:02:37;24.27;;;18.87;;
12519;SDS011;6325;49.540;8.364;2024-02-28T07:05:04;26.55;;;19.30;;
12519;SDS011;6325;49.540;8.364;2024-02-28T07:07:31;26.70;;;19.58;;
12519;SDS011;6325;49.540;8.364;2024-02-28T07:09:58;28.37;;;20.27;;
12519;SDS011;6325;49.540;8.364;2024-02-28T07:12:25;27.30;;;19.85;;
12519;SDS011;6325;49.540;8.364;2024-02-28T07:14:53;27.40;;;20.10;;
12519;SDS011;6325;49.540;8.364;2024-02-28T07:17:20;28.88;;;20.85;;
12519;SDS011;6325;49.540;8.364;2024-02-28T07:19:47;28.52;;;20.60;;
12519;SDS011;6325;49.540;8.364;2024-02-28T07:22:14;28.05;;;19.80;;
12519;SDS011;6325;49.540;8.364;2024-02-28T07:24:40;26.45;;;19.73;;
12519;SDS011;6325;49.540;8.364;2024-02-28T07:27:07;27.20;;;19.97;;
12519;SDS011;6325;49.540;8.364;2024-02-28T07:29:36;26.95;;;19.73;;
12519;SDS011;6325;49.540;8.364;2024-02-28T07:32:04;25.63;;;19.00;;
12519;SDS011;6325;49.540;8.364;2024-02-28T07:34:31;27.10;;;20.20;;
12519;SDS011;6325;49.540;8.364;2024-02-28T07:36:58;26.20;;;19.10;;
12519;SDS011;6325;49.540;8.364;2024-02-28T07:39:25;26.33;;;19.23;;
12519;SDS011;6325;49.540;8.364;2024-02-28T07:41:52;28.30;;;19.73;;
12519;SDS011;6325;49.540;8.364;2024-02-28T07:44:19;26.48;;;19.45;;
12519;SDS011;6325;49.540;8.364;2024-02-28T07:46:45;26.95;;;19.98;;
12519;SDS011;6325;49.540;8.364;2024-02-28T07:49:14;25.07;;;18.93;;
12519;SDS011;6325;49.540;8.364;2024-02-28T07:51:40;27.30;;;19.63;;
12519;SDS011;6325;49.540;8.364;2024-02-28T07:54:07;26.17;;;19.13;;
12519;SDS011;6325;49.540;8.364;2024-02-28T07:56:34;26.33;;;19.20;;
12519;SDS011;6325;49.540;8.364;2024-02-28T07:59:01;26.60;;;19.48;;
12519;SDS011;6325;49.540;8.364;2024-02-28T08:01:28;25.70;;;18.60;;
12519;SDS011;6325;49.540;8.364;2024-02-28T08:03:55;24.02;;;17.70;;
12519;SDS011;6325;49.540;8.364;2024-02-28T08:06:23;23.75;;;17.95;;
12519;SDS011;6325;49.540;8.364;2024-02-28T08:08:50;24.35;;;17.85;;
12519;SDS011;6325;49.540;8.364;2024-02-28T08:11:17;22.10;;;17.13;;
12519;SDS011;6325;49.540;8.364;2024-02-28T08:13:44;22.73;;;17.15;;
12519;SDS011;6325;49.540;8.364;2024-02-28T08:16:11;23.85;;;17.65;;
12519;SDS011;6325;49.540;8.364;2024-02-28T08:18:37;21.48;;;16.45;;
12519;SDS011;6325;49.540;8.364;2024-02-28T08:21:04;21.33;;;16.20;;
12519;SDS011;6325;49.540;8.364;2024-02-28T08:23:32;23.50;;;17.38;;
12519;SDS011;6325;49.540;8.364;2024-02-28T08:25:59;23.17;;;17.38;;
12519;SDS011;6325;49.540;8.364;2024-02-28T08:28:25;22.00;;;16.85;;
12519;SDS011;6325;49.540;8.364;2024-02-28T08:30:52;23.83;;;17.60;;
12519;SDS011;6325;49.540;8.364;2024-02-28T08:33:19;22.52;;;17.20;;
12519;SDS011;6325;49.540;8.364;2024-02-28T08:35:46;24.27;;;17.83;;
12519;SDS011;6325;49.540;8.364;2024-02-28T08:38:15;23.10;;;17.65;;
12519;SDS011;6325;49.540;8.364;2024-02-28T08:40:43;23.98;;;17.23;;
12519;SDS011;6325;49.540;8.364;2024-02-28T08:43:10;24.30;;;17.88;;
12519;SDS011;6325;49.540;8.364;2024-02-28T08:45:37;24.05;;;17.38;;
12519;SDS011;6325;49.540;8.364;2024-02-28T08:48:04;24.55;;;18.38;;
12519;SDS011;6325;49.540;8.364;2024-02-28T08:50:31;22.92;;;17.60;;
12519;SDS011;6325;49.540;8.364;2024-02-28T08:52:58;24.08;;;17.10;;
12519;SDS011;6325;49.540;8.364;2024-02-28T08:55:25;22.33;;;16.95;;
12519;SDS011;6325;49.540;8.364;2024-02-28T08:57:53;23.67;;;17.67;;
12519;SDS011;6325;49.540;8.364;2024-02-28T09:00:19;23.77;;;17.55;;
12519;SDS011;6325;49.540;8.364;2024-02-28T09:02:46;23.60;;;17.25;;
12519;SDS011;6325;49.540;8.364;2024-02-28T09:05:13;24.05;;;17.50;;
12519;SDS011;6325;49.540;8.364;2024-02-28T09:07:40;22.58;;;17.23;;
12519;SDS011;6325;49.540;8.364;2024-02-28T09:10:07;22.50;;;16.77;;
12519;SDS011;6325;49.540;8.364;2024-02-28T09:12:34;23.25;;;16.73;;
12519;SDS011;6325;49.540;8.364;2024-02-28T09:15:03;23.98;;;18.02;;
12519;SDS011;6325;49.540;8.364;2024-02-28T09:17:30;22.93;;;17.53;;
12519;SDS011;6325;49.540;8.364;2024-02-28T09:19:57;21.50;;;16.55;;
12519;SDS011;6325;49.540;8.364;2024-02-28T09:22:25;21.30;;;16.00;;
12519;SDS011;6325;49.540;8.364;2024-02-28T09:24:52;21.75;;;16.35;;
12519;SDS011;6325;49.540;8.364;2024-02-28T09:27:19;20.17;;;15.93;;
12519;SDS011;6325;49.540;8.364;2024-02-28T09:29:46;20.05;;;15.75;;
12519;SDS011;6325;49.540;8.364;2024-02-28T09:32:15;19.67;;;15.48;;
12519;SDS011;6325;49.540;8.364;2024-02-28T09:34:43;18.45;;;14.57;;
12519;SDS011;6325;49.540;8.364;2024-02-28T09:37:10;19.07;;;15.07;;
12519;SDS011;6325;49.540;8.364;2024-02-28T09:39:37;18.80;;;15.07;;
12519;SDS011;6325;49.540;8.364;2024-02-28T09:42:05;19.52;;;15.55;;
12519;SDS011;6325;49.540;8.364;2024-02-28T09:44:33;18.27;;;14.80;;
12519;SDS011;6325;49.540;8.364;2024-02-28T09:47:00;19.67;;;15.32;;
12519;SDS011;6325;49.540;8.364;2024-02-28T09:49:29;20.48;;;16.05;;
12519;SDS011;6325;49.540;8.364;2024-02-28T09:51:58;17.88;;;14.40;;
12519;SDS011;6325;49.540;8.364;2024-02-28T09:54:26;17.88;;;14.18;;
12519;SDS011;6325;49.540;8.364;2024-02-28T09:56:53;19.58;;;15.73;;
12519;SDS011;6325;49.540;8.364;2024-02-28T09:59:22;18.40;;;14.55;;
12519;SDS011;6325;49.540;8.364;2024-02-28T10:01:52;18.05;;;14.05;;
12519;SDS011;6325;49.540;8.364;2024-02-28T10:04:22;18.00;;;15.52;;
12519;SDS011;6325;49.540;8.364;2024-02-28T10:06:51;20.20;;;15.93;;
12519;SDS011;6325;49.540;8.364;2024-02-28T10:09:18;18.98;;;14.90;;
12519;SDS011;6325;49.540;8.364;2024-02-28T10:11:45;16.65;;;14.45;;
12519;SDS011;6325;49.540;8.364;2024-02-28T10:14:16;18.95;;;15.32;;
12519;SDS011;6325;49.540;8.364;2024-02-28T10:16:43;17.00;;;14.50;;
12519;SDS011;6325;49.540;8.364;2024-02-28T10:19:10;16.37;;;13.97;;
12519;SDS011;6325;49.540;8.364;2024-02-28T10:21:37;17.42;;;15.27;;
12519;SDS011;6325;49.540;8.364;2024-02-28T10:24:06;15.55;;;13.30;;
12519;SDS011;6325;49.540;8.364;2024-02-28T10:26:41;17.47;;;14.97;;
12519;SDS011;6325;49.540;8.364;2024-02-28T10:29:08;14.95;;;12.98;;
12519;SDS011;6325;49.540;8.364;2024-02-28T10:31:35;16.88;;;14.60;;
12519;SDS011;6325;49.540;8.364;2024-02-28T10:34:02;16.98;;;14.90;;
12519;SDS011;6325;49.540;8.364;2024-02-28T10:36:31;17.08;;;15.05;;
12519;SDS011;6325;49.540;8.364;2024-02-28T10:38:59;16.13;;;14.35;;
12519;SDS011;6325;49.540;8.364;2024-02-28T10:41:28;16.27;;;14.05;;
12519;SDS011;6325;49.540;8.364;2024-02-28T10:43:55;15.70;;;13.60;;
12519;SDS011;6325;49.540;8.364;2024-02-28T10:46:23;15.20;;;13.52;;
12519;SDS011;6325;49.540;8.364;2024-02-28T10:48:49;15.40;;;13.38;;
12519;SDS011;6325;49.540;8.364;2024-02-28T10:51:19;15.32;;;13.13;;
12519;SDS011;6325;49.540;8.364;2024-02-28T10:53:49;15.68;;;14.02;;
12519;SDS011;6325;49.540;8.364;2024-02-28T10:56:25;14.02;;;12.55;;
12519;SDS011;6325;49.540;8.364;2024-02-28T10:58:57;12.73;;;11.43;;
12519;SDS011;6325;49.540;8.364;2024-02-28T11:01:25;14.57;;;12.93;;
12519;SDS011;6325;49.540;8.364;2024-02-28T11:03:53;14.20;;;12.70;;
12519;SDS011;6325;49.540;8.364;2024-02-28T11:06:20;15.05;;;13.45;;
12519;SDS011;6325;49.540;8.364;2024-02-28T11:08:49;13.45;;;12.05;;
12519;SDS011;6325;49.540;8.364;2024-02-28T11:11:18;13.18;;;11.80;;
12519;SDS011;6325;49.540;8.364;2024-02-28T11:13:54;14.70;;;12.90;;
12519;SDS011;6325;49.540;8.364;2024-02-28T11:16:26;14.43;;;12.53;;
12519;SDS011;6325;49.540;8.364;2024-02-28T11:18:53;13.90;;;12.43;;
12519;SDS011;6325;49.540;8.364;2024-02-28T11:21:22;13.85;;;12.43;;
12519;SDS011;6325;49.540;8.364;2024-02-28T11:23:51;13.87;;;12.47;;
12519;SDS011;6325;49.540;8.364;2024-02-28T11:26:19;13.77;;;12.00;;
12519;SDS011;6325;49.540;8.364;2024-02-28T11:28:46;12.60;;;11.25;;
12519;SDS011;6325;49.540;8.364;2024-02-28T11:31:15;12.50;;;11.20;;
12519;SDS011;6325;49.540;8.364;2024-02-28T11:33:43;12.65;;;11.35;;
12519;SDS011;6325;49.540;8.364;2024-02-28T11:36:11;11.95;;;10.73;;
12519;SDS011;6325;49.540;8.364;2024-02-28T11:38:38;11.63;;;10.43;;
12519;SDS011;6325;49.540;8.364;2024-02-28T11:41:05;12.27;;;10.97;;
12519;SDS011;6325;49.540;8.364;2024-02-28T11:43:32;10.68;;;9.57;;
12519;SDS011;6325;49.540;8.364;2024-02-28T11:46:00;11.80;;;10.60;;
12519;SDS011;6325;49.540;8.364;2024-02-28T11:48:30;11.33;;;10.23;;
12519;SDS011;6325;49.540;8.364;2024-02-28T11:50:58;11.50;;;10.35;;
12519;SDS011;6325;49.540;8.364;2024-02-28T11:53:24;11.60;;;10.50;;
12519;SDS011;6325;49.540;8.364;2024-02-28T11:55:52;10.75;;;9.65;;
12519;SDS011;6325;49.540;8.364;2024-02-28T11:58:20;10.35;;;9.32;;
12519;SDS011;6325;49.540;8.364;2024-02-28T12:00:47;11.07;;;9.98;;
12519;SDS011;6325;49.540;8.364;2024-02-28T12:03:14;11.40;;;10.30;;
12519;SDS011;6325;49.540;8.364;2024-02-28T12:05:47;12.27;;;10.80;;
12519;SDS011;6325;49.540;8.364;2024-02-28T12:08:14;10.95;;;9.90;;
12519;SDS011;6325;49.540;8.364;2024-02-28T12:10:41;11.13;;;10.00;;
12519;SDS011;6325;49.540;8.364;2024-02-28T12:13:08;11.07;;;9.98;;
12519;SDS011;6325;49.540;8.364;2024-02-28T12:15:36;10.57;;;9.45;;
12519;SDS011;6325;49.540;8.364;2024-02-28T12:18:07;10.27;;;9.27;;
12519;SDS011;6325;49.540;8.364;2024-02-28T12:20:35;10.10;;;9.10;;
12519;SDS011;6325;49.540;8.364;2024-02-28T12:23:03;10.50;;;9.50;;
12519;SDS011;6325;49.540;8.364;2024-02-28T12:25:30;9.65;;;8.65;;
12519;SDS011;6325;49.540;8.364;2024-02-28T12:27:57;9.57;;;8.57;;
12519;SDS011;6325;49.540;8.364;2024-02-28T12:30:24;10.30;;;9.30;;
12519;SDS011;6325;49.540;8.364;2024-02-28T12:32:51;10.02;;;9.02;;
12519;SDS011;6325;49.540;8.364;2024-02-28T12:35:18;9.20;;;8.30;;
12519;SDS011;6325;49.540;8.364;2024-02-28T12:37:45;8.65;;;7.82;;
12519;SDS011;6325;49.540;8.364;2024-02-28T12:40:16;8.83;;;8.03;;
12519;SDS011;6325;49.540;8.364;2024-02-28T12:42:42;9.60;;;8.70;;
12519;SDS011;6325;49.540;8.364;2024-02-28T12:45:09;8.73;;;7.93;;
12519;SDS011;6325;49.540;8.364;2024-02-28T12:47:36;8.55;;;7.70;;
12519;SDS011;6325;49.540;8.364;2024-02-28T12:50:03;8.65;;;7.85;;
12519;SDS011;6325;49.540;8.364;2024-02-28T12:52:32;9.90;;;8.90;;
12519;SDS011;6325;49.540;8.364;2024-02-28T12:54:58;9.85;;;8.85;;
12519;SDS011;6325;49.540;8.364;2024-02-28T12:57:27;9.40;;;8.50;;
12519;SDS011;6325;49.540;8.364;2024-02-28T12:59:54;9.30;;;8.40;;
12519;SDS011;6325;49.540;8.364;2024-02-28T13:02:21;8.85;;;8.02;;
12519;SDS011;6325;49.540;8.364;2024-02-28T13:04:48;9.30;;;8.40;;
12519;SDS011;6325;49.540;8.364;2024-02-28T13:07:15;9.77;;;8.88;;
12519;SDS011;6325;49.540;8.364;2024-02-28T13:09:44;10.23;;;9.23;;
12519;SDS011;6325;49.540;8.364;2024-02-28T13:12:11;10.00;;;9.00;;
12519;SDS011;6325;49.540;8.364;2024-02-28T13:14:39;10.00;;;9.07;;
12519;SDS011;6325;49.540;8.364;2024-02-28T13:17:06;9.23;;;8.25;;
12519;SDS011;6325;49.540;8.364;2024-02-28T13:19:33;8.80;;;7.90;;
12519;SDS011;6325;49.540;8.364;2024-02-28T13:21:59;16.37;;;13.57;;
12519;SDS011;6325;49.540;8.364;2024-02-28T13:24:26;9.20;;;8.30;;
12519;SDS011;6325;49.540;8.364;2024-02-28T13:26:53;8.97;;;8.07;;
12519;SDS011;6325;49.540;8.364;2024-02-28T13:29:19;9.25;;;8.35;;
12519;SDS011;6325;49.540;8.364;2024-02-28T13:31:48;8.70;;;7.90;;
12519;SDS011;6325;49.540;8.364;2024-02-28T13:34:15;8.40;;;7.60;;
12519;SDS011;6325;49.540;8.364;2024-02-28T13:36:42;8.85;;;7.97;;
12519;SDS011;6325;49.540;8.364;2024-02-28T13:39:08;10.00;;;9.00;;
12519;SDS011;6325;49.540;8.364;2024-02-28T13:41:36;8.98;;;8.10;;
12519;SDS011;6325;49.540;8.364;2024-02-28T13:44:03;9.70;;;8.80;;
12519;SDS011;6325;49.540;8.364;2024-02-28T13:46:30;9.68;;;8.15;;
12519;SDS011;6325;49.540;8.364;2024-02-28T13:48:58;9.45;;;8.55;;
12519;SDS011;6325;49.540;8.364;2024-02-28T13:51:26;10.80;;;9.70;;
12519;SDS011;6325;49.540;8.364;2024-02-28T13:53:53;9.80;;;8.90;;
12519;SDS011;6325;49.540;8.364;2024-02-28T13:56:20;9.82;;;8.82;;
12519;SDS011;6325;49.540;8.364;2024-02-28T13:58:48;9.75;;;8.75;;
12519;SDS011;6325;49.540;8.364;2024-02-28T14:01:15;9.82;;;8.82;;
12519;SDS011;6325;49.540;8.364;2024-02-28T14:03:44;16.03;;;10.97;;
12519;SDS011;6325;49.540;8.364;2024-02-28T14:06:12;13.15;;;11.02;;
12519;SDS011;6325;49.540;8.364;2024-02-28T14:08:39;10.85;;;9.63;;
12519;SDS011;6325;49.540;8.364;2024-02-28T14:11:06;10.07;;;8.77;;
12519;SDS011;6325;49.540;8.364;2024-02-28T14:13:33;10.05;;;9.05;;
12519;SDS011;6325;49.540;8.364;2024-02-28T14:16:00;8.70;;;7.90;;
12519;SDS011;6325;49.540;8.364;2024-02-28T14:18:27;8.20;;;7.40;;
12519;SDS011;6325;49.540;8.364;2024-02-28T14:20:54;8.10;;;7.30;;
12519;SDS011;6325;49.540;8.364;2024-02-28T14:23:26;7.88;;;7.15;;
12519;SDS011;6325;49.540;8.364;2024-02-28T14:25:54;9.75;;;7.95;;
12519;SDS011;6325;49.540;8.364;2024-02-28T14:28:21;8.90;;;8.00;;
12519;SDS011;6325;49.540;8.364;2024-02-28T14:30:49;8.18;;;7.38;;
12519;SDS011;6325;49.540;8.364;2024-02-28T14:33:17;7.40;;;6.70;;
12519;SDS011;6325;49.540;8.364;2024-02-28T14:35:44;7.75;;;6.95;;
12519;SDS011;6325;49.540;8.364;2024-02-28T14:38:12;6.78;;;6.18;;